sensor_id;sensor_type;location;lat;lon;timestamp;P1;durP1;ratioP1;P2;durP2;ratioP2
5904;SDS011;2978;42.012;24.880;2023-03-31T07:03:45;7.10;;;2.57;;
5904;SDS011;2978;42.012;24.880;2023-03-31T07:38:28;17.20;;;8.70;;
5904;SDS011;2978;42.012;24.880;2023-03-31T07:41:23;15.50;;;7.27;;
5904;SDS011;2978;42.012;24.880;2023-03-31T07:44:14;17.70;;;11.00;;
5904;SDS011;2978;42.012;24.880;2023-03-31T07:46:44;17.30;;;10.63;;
5904;SDS011;2978;42.012;24.880;2023-03-31T07:49:21;17.10;;;9.00;;
5904;SDS011;2978;42.012;24.880;2023-03-31T07:51:55;15.27;;;8.10;;
5904;SDS011;2978;42.012;24.880;2023-03-31T07:54:27;13.77;;;8.67;;
5904;SDS011;2978;42.012;24.880;2023-03-31T07:57:20;21.33;;;11.33;;
5904;SDS011;2978;42.012;24.880;2023-03-31T07:59:48;17.43;;;10.27;;
5904;SDS011;2978;42.012;24.880;2023-03-31T08:02:14;23.40;;;12.33;;
5904;SDS011;2978;42.012;24.880;2023-03-31T08:04:42;19.13;;;10.73;;
5904;SDS011;2978;42.012;24.880;2023-03-31T08:07:08;16.47;;;8.33;;
5904;SDS011;2978;42.012;24.880;2023-03-31T08:09:38;17.00;;;8.30;;
5904;SDS011;2978;42.012;24.880;2023-03-31T08:12:04;14.47;;;7.60;;
5904;SDS011;2978;42.012;24.880;2023-03-31T08:14:30;22.53;;;7.47;;
5904;SDS011;2978;42.012;24.880;2023-03-31T08:16:55;18.77;;;7.23;;
5904;SDS011;2978;42.012;24.880;2023-03-31T08:19:22;16.60;;;6.07;;
5904;SDS011;2978;42.012;24.880;2023-03-31T08:21:48;16.53;;;6.27;;
5904;SDS011;2978;42.012;24.880;2023-03-31T08:24:14;11.60;;;6.97;;
5904;SDS011;2978;42.012;24.880;2023-03-31T08:26:39;12.17;;;6.07;;
5904;SDS011;2978;42.012;24.880;2023-03-31T08:29:05;16.70;;;8.33;;
5904;SDS011;2978;42.012;24.880;2023-03-31T08:31:31;12.73;;;8.10;;
5904;SDS011;2978;42.012;24.880;2023-03-31T08:33:57;8.63;;;5.80;;
5904;SDS011;2978;42.012;24.880;2023-03-31T08:36:24;11.90;;;7.47;;
5904;SDS011;2978;42.012;24.880;2023-03-31T08:38:51;34.80;;;18.43;;
5904;SDS011;2978;42.012;24.880;2023-03-31T08:41:26;12.80;;;7.50;;
5904;SDS011;2978;42.012;24.880;2023-03-31T08:43:56;10.80;;;5.70;;
5904;SDS011;2978;42.012;24.880;2023-03-31T08:46:24;15.40;;;6.80;;
5904;SDS011;2978;42.012;24.880;2023-03-31T08:48:56;11.10;;;6.07;;
5904;SDS011;2978;42.012;24.880;2023-03-31T08:56:47;12.90;;;5.33;;
5904;SDS011;2978;42.012;24.880;2023-03-31T08:59:30;8.93;;;5.13;;
5904;SDS011;2978;42.012;24.880;2023-03-31T09:02:09;9.97;;;4.63;;
5904;SDS011;2978;42.012;24.880;2023-03-31T09:05:10;9.50;;;4.20;;
5904;SDS011;2978;42.012;24.880;2023-03-31T09:08:11;13.37;;;5.20;;
5904;SDS011;2978;42.012;24.880;2023-03-31T09:10:50;11.23;;;4.73;;
5904;SDS011;2978;42.012;24.880;2023-03-31T09:16:01;19.50;;;5.00;;
5904;SDS011;2978;42.012;24.880;2023-03-31T09:18:38;9.10;;;4.80;;
5904;SDS011;2978;42.012;24.880;2023-03-31T09:29:14;8.27;;;4.83;;
5904;SDS011;2978;42.012;24.880;2023-03-31T09:31:43;12.63;;;4.60;;
5904;SDS011;2978;42.012;24.880;2023-03-31T09:34:15;8.63;;;4.57;;
5904;SDS011;2978;42.012;24.880;2023-03-31T09:36:47;13.53;;;4.17;;
5904;SDS011;2978;42.012;24.880;2023-03-31T09:39:13;5.93;;;4.20;;
5904;SDS011;2978;42.012;24.880;2023-03-31T09:41:41;9.07;;;4.30;;
5904;SDS011;2978;42.012;24.880;2023-03-31T09:44:43;11.33;;;3.83;;
5904;SDS011;2978;42.012;24.880;2023-03-31T09:47:01;6.10;;;3.60;;
5904;SDS011;2978;42.012;24.880;2023-03-31T09:49:31;9.60;;;3.97;;
5904;SDS011;2978;42.012;24.880;2023-03-31T09:52:00;17.47;;;4.67;;
5904;SDS011;2978;42.012;24.880;2023-03-31T09:54:43;7.73;;;4.50;;
5904;SDS011;2978;42.012;24.880;2023-03-31T09:57:26;12.87;;;4.13;;
5904;SDS011;2978;42.012;24.880;2023-03-31T10:02:38;24.30;;;7.83;;
5904;SDS011;2978;42.012;24.880;2023-03-31T10:05:17;11.87;;;5.03;;
5904;SDS011;2978;42.012;24.880;2023-03-31T10:13:46;18.90;;;4.37;;
5904;SDS011;2978;42.012;24.880;2023-03-31T10:19:10;12.13;;;4.43;;
5904;SDS011;2978;42.012;24.880;2023-03-31T10:21:38;11.23;;;5.30;;
5904;SDS011;2978;42.012;24.880;2023-03-31T10:24:07;15.97;;;4.27;;
5904;SDS011;2978;42.012;24.880;2023-03-31T10:26:33;9.43;;;4.63;;
5904;SDS011;2978;42.012;24.880;2023-03-31T10:28:59;16.00;;;5.33;;
5904;SDS011;2978;42.012;24.880;2023-03-31T10:31:25;10.03;;;4.50;;
5904;SDS011;2978;42.012;24.880;2023-03-31T10:33:59;10.37;;;4.87;;
5904;SDS011;2978;42.012;24.880;2023-03-31T10:36:30;10.17;;;4.60;;
5904;SDS011;2978;42.012;24.880;2023-03-31T10:38:56;12.90;;;5.00;;
5904;SDS011;2978;42.012;24.880;2023-03-31T10:41:26;13.67;;;6.40;;
5904;SDS011;2978;42.012;24.880;2023-03-31T10:43:54;17.10;;;5.23;;
5904;SDS011;2978;42.012;24.880;2023-03-31T10:49:13;19.53;;;4.73;;
5904;SDS011;2978;42.012;24.880;2023-03-31T10:51:50;12.20;;;5.23;;
5904;SDS011;2978;42.012;24.880;2023-03-31T10:54:17;10.00;;;5.80;;
5904;SDS011;2978;42.012;24.880;2023-03-31T10:56:46;21.50;;;6.47;;
5904;SDS011;2978;42.012;24.880;2023-03-31T10:59:22;11.53;;;6.20;;
5904;SDS011;2978;42.012;24.880;2023-03-31T11:04:59;11.77;;;6.33;;
5904;SDS011;2978;42.012;24.880;2023-03-31T11:10:32;16.67;;;6.03;;
5904;SDS011;2978;42.012;24.880;2023-03-31T11:24:20;49.33;;;7.67;;
5904;SDS011;2978;42.012;24.880;2023-03-31T11:30:01;16.63;;;6.87;;
5904;SDS011;2978;42.012;24.880;2023-03-31T11:32:56;27.50;;;6.70;;
5904;SDS011;2978;42.012;24.880;2023-03-31T11:41:07;18.83;;;6.33;;
5904;SDS011;2978;42.012;24.880;2023-03-31T11:43:51;24.57;;;5.40;;
5904;SDS011;2978;42.012;24.880;2023-03-31T11:46:21;15.80;;;5.63;;
5904;SDS011;2978;42.012;24.880;2023-03-31T11:48:52;24.37;;;5.97;;
5904;SDS011;2978;42.012;24.880;2023-03-31T11:51:30;9.23;;;4.23;;
5904;SDS011;2978;42.012;24.880;2023-03-31T11:54:06;9.50;;;4.80;;
5904;SDS011;2978;42.012;24.880;2023-03-31T11:56:41;6.63;;;3.77;;
5904;SDS011;2978;42.012;24.880;2023-03-31T11:59:08;12.60;;;4.97;;
5904;SDS011;2978;42.012;24.880;2023-03-31T12:01:58;11.33;;;4.40;;
5904;SDS011;2978;42.012;24.880;2023-03-31T12:04:48;10.53;;;4.57;;
5904;SDS011;2978;42.012;24.880;2023-03-31T12:10:53;7.63;;;4.70;;
5904;SDS011;2978;42.012;24.880;2023-03-31T12:16:13;11.73;;;4.50;;
5904;SDS011;2978;42.012;24.880;2023-03-31T12:18:55;10.43;;;4.10;;
5904;SDS011;2978;42.012;24.880;2023-03-31T12:21:21;13.07;;;4.10;;
5904;SDS011;2978;42.012;24.880;2023-03-31T12:23:50;10.77;;;4.13;;
5904;SDS011;2978;42.012;24.880;2023-03-31T12:28:52;7.37;;;3.70;;
5904;SDS011;2978;42.012;24.880;2023-03-31T12:31:22;7.33;;;3.60;;
5904;SDS011;2978;42.012;24.880;2023-03-31T12:33:55;9.03;;;3.90;;
5904;SDS011;2978;42.012;24.880;2023-03-31T12:56:11;7.00;;;3.13;;
5904;SDS011;2978;42.012;24.880;2023-03-31T12:58:38;10.47;;;3.53;;
5904;SDS011;2978;42.012;24.880;2023-03-31T13:06:02;10.47;;;3.30;;
5904;SDS011;2978;42.012;24.880;2023-03-31T13:08:48;5.77;;;2.87;;
5904;SDS011;2978;42.012;24.880;2023-03-31T13:11:14;8.40;;;3.33;;
5904;SDS011;2978;42.012;24.880;2023-03-31T13:13:43;10.20;;;2.70;;
5904;SDS011;2978;42.012;24.880;2023-03-31T13:16:33;12.43;;;2.50;;
5904;SDS011;2978;42.012;24.880;2023-03-31T13:19:00;6.00;;;4.30;;
5904;SDS011;2978;42.012;24.880;2023-03-31T13:21:26;9.73;;;3.77;;
5904;SDS011;2978;42.012;24.880;2023-03-31T13:23:52;11.27;;;2.80;;
5904;SDS011;2978;42.012;24.880;2023-03-31T13:34:25;5.93;;;2.40;;
5904;SDS011;2978;42.012;24.880;2023-03-31T13:37:05;11.57;;;2.57;;
5904;SDS011;2978;42.012;24.880;2023-03-31T13:39:46;10.40;;;2.00;;
5904;SDS011;2978;42.012;24.880;2023-03-31T13:42:40;7.43;;;3.03;;
5904;SDS011;2978;42.012;24.880;2023-03-31T13:47:58;12.17;;;3.67;;
5904;SDS011;2978;42.012;24.880;2023-03-31T13:56:08;9.03;;;2.90;;
5904;SDS011;2978;42.012;24.880;2023-03-31T13:58:52;6.80;;;2.70;;
5904;SDS011;2978;42.012;24.880;2023-03-31T14:07:08;5.93;;;3.00;;
5904;SDS011;2978;42.012;24.880;2023-03-31T14:09:39;6.00;;;3.47;;
5904;SDS011;2978;42.012;24.880;2023-03-31T14:15:16;5.63;;;2.50;;
5904;SDS011;2978;42.012;24.880;2023-03-31T14:17:43;7.50;;;2.57;;
5904;SDS011;2978;42.012;24.880;2023-03-31T14:36:22;8.90;;;3.67;;
5904;SDS011;2978;42.012;24.880;2023-03-31T14:38:52;5.70;;;2.53;;
5904;SDS011;2978;42.012;24.880;2023-03-31T14:41:19;7.73;;;2.93;;
5904;SDS011;2978;42.012;24.880;2023-03-31T14:43:53;3.50;;;2.20;;
5904;SDS011;2978;42.012;24.880;2023-03-31T14:46:21;5.30;;;2.90;;
5904;SDS011;2978;42.012;24.880;2023-03-31T14:48:47;6.97;;;3.53;;
5904;SDS011;2978;42.012;24.880;2023-03-31T14:51:15;19.33;;;5.67;;
5904;SDS011;2978;42.012;24.880;2023-03-31T14:54:00;12.33;;;6.60;;
5904;SDS011;2978;42.012;24.880;2023-03-31T14:56:30;6.70;;;3.30;;
5904;SDS011;2978;42.012;24.880;2023-03-31T14:59:00;5.80;;;3.23;;
5904;SDS011;2978;42.012;24.880;2023-03-31T15:01:30;7.70;;;3.40;;
5904;SDS011;2978;42.012;24.880;2023-03-31T15:04:11;5.00;;;2.50;;
5904;SDS011;2978;42.012;24.880;2023-03-31T15:06:39;3.80;;;2.27;;
5904;SDS011;2978;42.012;24.880;2023-03-31T15:09:06;11.43;;;2.93;;
5904;SDS011;2978;42.012;24.880;2023-03-31T15:11:36;5.83;;;3.00;;
5904;SDS011;2978;42.012;24.880;2023-03-31T15:14:02;6.87;;;3.50;;
5904;SDS011;2978;42.012;24.880;2023-03-31T15:16:39;11.07;;;3.73;;
5904;SDS011;2978;42.012;24.880;2023-03-31T15:19:19;9.17;;;3.00;;
5904;SDS011;2978;42.012;24.880;2023-03-31T15:22:09;7.30;;;3.30;;
5904;SDS011;2978;42.012;24.880;2023-03-31T15:24:40;12.57;;;4.10;;
5904;SDS011;2978;42.012;24.880;2023-03-31T15:27:07;5.63;;;3.23;;
5904;SDS011;2978;42.012;24.880;2023-03-31T15:29:42;11.80;;;3.53;;
5904;SDS011;2978;42.012;24.880;2023-03-31T15:32:13;5.73;;;3.40;;
5904;SDS011;2978;42.012;24.880;2023-03-31T15:34:45;7.93;;;4.20;;
5904;SDS011;2978;42.012;24.880;2023-03-31T15:37:12;12.23;;;4.13;;
5904;SDS011;2978;42.012;24.880;2023-03-31T15:39:37;5.87;;;3.20;;
5904;SDS011;2978;42.012;24.880;2023-03-31T15:42:08;10.50;;;4.27;;
5904;SDS011;2978;42.012;24.880;2023-03-31T15:47:17;4.80;;;2.83;;
5904;SDS011;2978;42.012;24.880;2023-03-31T15:49:48;5.30;;;3.47;;
5904;SDS011;2978;42.012;24.880;2023-03-31T15:52:29;11.57;;;3.70;;
5904;SDS011;2978;42.012;24.880;2023-03-31T15:54:58;9.03;;;3.30;;
5904;SDS011;2978;42.012;24.880;2023-03-31T15:57:34;9.00;;;4.10;;
5904;SDS011;2978;42.012;24.880;2023-03-31T16:00:00;11.10;;;3.60;;
5904;SDS011;2978;42.012;24.880;2023-03-31T16:02:30;9.13;;;3.97;;
5904;SDS011;2978;42.012;24.880;2023-03-31T16:05:04;7.17;;;4.03;;
5904;SDS011;2978;42.012;24.880;2023-03-31T16:07:31;12.23;;;4.30;;
5904;SDS011;2978;42.012;24.880;2023-03-31T16:15:11;9.17;;;4.60;;
5904;SDS011;2978;42.012;24.880;2023-03-31T16:17:44;11.50;;;4.03;;
5904;SDS011;2978;42.012;24.880;2023-03-31T16:22:56;11.07;;;4.40;;
5904;SDS011;2978;42.012;24.880;2023-03-31T16:25:24;18.30;;;5.27;;
5904;SDS011;2978;42.012;24.880;2023-03-31T16:27:54;14.50;;;4.47;;
5904;SDS011;2978;42.012;24.880;2023-03-31T16:30:35;9.67;;;4.33;;
5904;SDS011;2978;42.012;24.880;2023-03-31T16:33:06;12.93;;;6.00;;
5904;SDS011;2978;42.012;24.880;2023-03-31T16:35:41;15.33;;;6.53;;
5904;SDS011;2978;42.012;24.880;2023-03-31T16:38:09;11.57;;;6.40;;
5904;SDS011;2978;42.012;24.880;2023-03-31T16:40:36;13.43;;;6.90;;
5904;SDS011;2978;42.012;24.880;2023-03-31T16:43:11;20.13;;;9.23;;
5904;SDS011;2978;42.012;24.880;2023-03-31T16:45:39;25.73;;;10.57;;
5904;SDS011;2978;42.012;24.880;2023-03-31T16:48:07;25.17;;;11.40;;
5904;SDS011;2978;42.012;24.880;2023-03-31T16:50:32;14.23;;;9.77;;
5904;SDS011;2978;42.012;24.880;2023-03-31T16:52:59;21.53;;;10.50;;
5904;SDS011;2978;42.012;24.880;2023-03-31T16:55:25;18.00;;;10.97;;
5904;SDS011;2978;42.012;24.880;2023-03-31T16:57:51;36.87;;;10.97;;
5904;SDS011;2978;42.012;24.880;2023-03-31T17:00:17;64.27;;;26.13;;
5904;SDS011;2978;42.012;24.880;2023-03-31T17:02:43;68.30;;;30.30;;
5904;SDS011;2978;42.012;24.880;2023-03-31T17:05:10;41.63;;;18.07;;
5904;SDS011;2978;42.012;24.880;2023-03-31T17:07:36;26.03;;;11.03;;
5904;SDS011;2978;42.012;24.880;2023-03-31T17:10:01;14.70;;;8.57;;
5904;SDS011;2978;42.012;24.880;2023-03-31T17:12:27;8.50;;;5.40;;
5904;SDS011;2978;42.012;24.880;2023-03-31T17:14:52;12.13;;;5.17;;
5904;SDS011;2978;42.012;24.880;2023-03-31T17:17:18;10.70;;;5.93;;
5904;SDS011;2978;42.012;24.880;2023-03-31T17:19:43;10.17;;;5.20;;
5904;SDS011;2978;42.012;24.880;2023-03-31T17:22:08;11.43;;;5.20;;
5904;SDS011;2978;42.012;24.880;2023-03-31T17:24:34;10.80;;;6.23;;
5904;SDS011;2978;42.012;24.880;2023-03-31T17:27:00;10.87;;;5.53;;
5904;SDS011;2978;42.012;24.880;2023-03-31T17:29:25;9.53;;;5.80;;
5904;SDS011;2978;42.012;24.880;2023-03-31T17:31:51;9.80;;;5.00;;
5904;SDS011;2978;42.012;24.880;2023-03-31T17:34:16;11.57;;;7.20;;
5904;SDS011;2978;42.012;24.880;2023-03-31T17:36:42;8.33;;;4.57;;
5904;SDS011;2978;42.012;24.880;2023-03-31T17:39:08;12.30;;;5.27;;
5904;SDS011;2978;42.012;24.880;2023-03-31T17:41:34;11.23;;;4.00;;
5904;SDS011;2978;42.012;24.880;2023-03-31T17:44:00;11.00;;;4.40;;
5904;SDS011;2978;42.012;24.880;2023-03-31T17:46:26;6.83;;;3.90;;
5904;SDS011;2978;42.012;24.880;2023-03-31T17:48:51;7.50;;;4.53;;
5904;SDS011;2978;42.012;24.880;2023-03-31T17:51:18;9.50;;;5.20;;
5904;SDS011;2978;42.012;24.880;2023-03-31T17:53:45;9.03;;;4.70;;
5904;SDS011;2978;42.012;24.880;2023-03-31T17:56:12;9.27;;;5.07;;
5904;SDS011;2978;42.012;24.880;2023-03-31T17:58:39;15.17;;;7.80;;
5904;SDS011;2978;42.012;24.880;2023-03-31T18:01:06;24.80;;;11.20;;
5904;SDS011;2978;42.012;24.880;2023-03-31T18:03:33;21.27;;;10.40;;
5904;SDS011;2978;42.012;24.880;2023-03-31T18:06:03;23.50;;;12.80;;
5904;SDS011;2978;42.012;24.880;2023-03-31T18:08:30;16.57;;;9.33;;
5904;SDS011;2978;42.012;24.880;2023-03-31T18:10:57;14.23;;;5.70;;
5904;SDS011;2978;42.012;24.880;2023-03-31T18:13:22;12.00;;;6.07;;
5904;SDS011;2978;42.012;24.880;2023-03-31T18:15:48;9.60;;;4.60;;
5904;SDS011;2978;42.012;24.880;2023-03-31T18:18:16;9.97;;;4.77;;
5904;SDS011;2978;42.012;24.880;2023-03-31T18:20:42;7.03;;;3.77;;
5904;SDS011;2978;42.012;24.880;2023-03-31T18:23:08;10.03;;;4.30;;
5904;SDS011;2978;42.012;24.880;2023-03-31T18:25:34;10.63;;;5.07;;
5904;SDS011;2978;42.012;24.880;2023-03-31T18:28:00;9.03;;;4.47;;
5904;SDS011;2978;42.012;24.880;2023-03-31T18:30:25;8.73;;;4.37;;
5904;SDS011;2978;42.012;24.880;2023-03-31T18:32:51;11.03;;;6.37;;
5904;SDS011;2978;42.012;24.880;2023-03-31T18:35:17;13.73;;;6.70;;
5904;SDS011;2978;42.012;24.880;2023-03-31T18:37:44;12.07;;;6.27;;
5904;SDS011;2978;42.012;24.880;2023-03-31T18:40:10;7.63;;;5.13;;
5904;SDS011;2978;42.012;24.880;2023-03-31T18:42:39;7.03;;;4.33;;
5904;SDS011;2978;42.012;24.880;2023-03-31T18:45:05;9.83;;;3.47;;
5904;SDS011;2978;42.012;24.880;2023-03-31T18:47:33;10.20;;;3.40;;
5904;SDS011;2978;42.012;24.880;2023-03-31T18:50:00;6.40;;;3.30;;
5904;SDS011;2978;42.012;24.880;2023-03-31T18:52:26;11.90;;;4.43;;
5904;SDS011;2978;42.012;24.880;2023-03-31T18:54:51;15.37;;;4.07;;
5904;SDS011;2978;42.012;24.880;2023-03-31T18:57:17;6.10;;;3.27;;
5904;SDS011;2978;42.012;24.880;2023-03-31T18:59:42;6.10;;;3.40;;
5904;SDS011;2978;42.012;24.880;2023-03-31T19:02:10;6.10;;;3.67;;
5904;SDS011;2978;42.012;24.880;2023-03-31T19:04:37;7.47;;;3.87;;
5904;SDS011;2978;42.012;24.880;2023-03-31T19:07:06;8.53;;;3.73;;
5904;SDS011;2978;42.012;24.880;2023-03-31T19:09:31;9.50;;;3.13;;
5904;SDS011;2978;42.012;24.880;2023-03-31T19:11:57;8.27;;;3.50;;
5904;SDS011;2978;42.012;24.880;2023-03-31T19:14:22;6.27;;;3.37;;
5904;SDS011;2978;42.012;24.880;2023-03-31T19:16:48;19.17;;;3.60;;
5904;SDS011;2978;42.012;24.880;2023-03-31T19:19:14;11.33;;;6.00;;
5904;SDS011;2978;42.012;24.880;2023-03-31T19:21:39;6.40;;;3.97;;
5904;SDS011;2978;42.012;24.880;2023-03-31T19:24:05;6.03;;;4.10;;
5904;SDS011;2978;42.012;24.880;2023-03-31T19:26:31;8.97;;;4.90;;
5904;SDS011;2978;42.012;24.880;2023-03-31T19:29:01;11.73;;;5.30;;
5904;SDS011;2978;42.012;24.880;2023-03-31T19:31:28;11.60;;;5.77;;
5904;SDS011;2978;42.012;24.880;2023-03-31T19:33:53;5.90;;;4.07;;
5904;SDS011;2978;42.012;24.880;2023-03-31T19:36:19;10.07;;;4.43;;
5904;SDS011;2978;42.012;24.880;2023-03-31T19:38:44;8.50;;;4.53;;
5904;SDS011;2978;42.012;24.880;2023-03-31T19:41:10;13.80;;;5.00;;
5904;SDS011;2978;42.012;24.880;2023-03-31T19:43:35;5.30;;;3.70;;
5904;SDS011;2978;42.012;24.880;2023-03-31T19:46:03;8.27;;;3.73;;
5904;SDS011;2978;42.012;24.880;2023-03-31T19:48:29;11.17;;;4.30;;
5904;SDS011;2978;42.012;24.880;2023-03-31T19:50:58;10.10;;;3.70;;
5904;SDS011;2978;42.012;24.880;2023-03-31T19:53:24;9.80;;;4.03;;
5904;SDS011;2978;42.012;24.880;2023-03-31T19:56:00;6.00;;;3.77;;
5904;SDS011;2978;42.012;24.880;2023-03-31T19:58:32;8.00;;;4.37;;
5904;SDS011;2978;42.012;24.880;2023-03-31T20:00:59;8.50;;;4.67;;
5904;SDS011;2978;42.012;24.880;2023-03-31T20:03:25;9.60;;;3.93;;
5904;SDS011;2978;42.012;24.880;2023-03-31T20:05:59;11.60;;;5.00;;
5904;SDS011;2978;42.012;24.880;2023-03-31T20:08:38;12.70;;;4.23;;
5904;SDS011;2978;42.012;24.880;2023-03-31T20:11:08;7.77;;;4.60;;
5904;SDS011;2978;42.012;24.880;2023-03-31T20:13:36;11.97;;;4.43;;
5904;SDS011;2978;42.012;24.880;2023-03-31T20:16:06;11.93;;;5.43;;
5904;SDS011;2978;42.012;24.880;2023-03-31T20:18:33;7.57;;;3.80;;
5904;SDS011;2978;42.012;24.880;2023-03-31T20:21:10;8.30;;;3.90;;
5904;SDS011;2978;42.012;24.880;2023-03-31T20:23:38;9.30;;;4.50;;
5904;SDS011;2978;42.012;24.880;2023-03-31T20:26:05;12.57;;;4.70;;
5904;SDS011;2978;42.012;24.880;2023-03-31T20:28:33;4.27;;;3.83;;
5904;SDS011;2978;42.012;24.880;2023-03-31T20:31:04;7.30;;;3.70;;
5904;SDS011;2978;42.012;24.880;2023-03-31T20:33:40;5.17;;;4.00;;
5904;SDS011;2978;42.012;24.880;2023-03-31T20:36:07;7.57;;;3.90;;
5904;SDS011;2978;42.012;24.880;2023-03-31T20:38:35;8.43;;;4.17;;
5904;SDS011;2978;42.012;24.880;2023-03-31T20:41:02;8.23;;;3.67;;
5904;SDS011;2978;42.012;24.880;2023-03-31T20:43:27;8.67;;;3.70;;
5904;SDS011;2978;42.012;24.880;2023-03-31T20:45:56;11.20;;;4.10;;
5904;SDS011;2978;42.012;24.880;2023-03-31T20:48:36;12.03;;;4.40;;
5904;SDS011;2978;42.012;24.880;2023-03-31T20:51:04;9.40;;;3.90;;
5904;SDS011;2978;42.012;24.880;2023-03-31T20:53:31;11.07;;;5.27;;
5904;SDS011;2978;42.012;24.880;2023-03-31T20:56:05;10.83;;;4.10;;
5904;SDS011;2978;42.012;24.880;2023-03-31T20:58:31;7.70;;;4.03;;
5904;SDS011;2978;42.012;24.880;2023-03-31T21:00:56;6.60;;;3.70;;
5904;SDS011;2978;42.012;24.880;2023-03-31T21:03:23;8.70;;;3.70;;
5904;SDS011;2978;42.012;24.880;2023-03-31T21:05:48;13.00;;;4.13;;
5904;SDS011;2978;42.012;24.880;2023-03-31T21:08:13;6.30;;;4.37;;
5904;SDS011;2978;42.012;24.880;2023-03-31T21:10:42;7.70;;;3.77;;
5904;SDS011;2978;42.012;24.880;2023-03-31T21:13:12;12.70;;;4.10;;
5904;SDS011;2978;42.012;24.880;2023-03-31T21:15:45;5.73;;;3.70;;
5904;SDS011;2978;42.012;24.880;2023-03-31T21:18:12;4.93;;;3.60;;
5904;SDS011;2978;42.012;24.880;2023-03-31T21:20:40;6.83;;;3.40;;
5904;SDS011;2978;42.012;24.880;2023-03-31T21:23:12;11.20;;;2.90;;
5904;SDS011;2978;42.012;24.880;2023-03-31T21:25:38;8.83;;;3.93;;
5904;SDS011;2978;42.012;24.880;2023-03-31T21:28:03;7.70;;;3.17;;
5904;SDS011;2978;42.012;24.880;2023-03-31T21:30:29;4.20;;;2.97;;
5904;SDS011;2978;42.012;24.880;2023-03-31T21:32:55;6.77;;;3.53;;
5904;SDS011;2978;42.012;24.880;2023-03-31T21:35:20;4.37;;;3.07;;
5904;SDS011;2978;42.012;24.880;2023-03-31T21:37:46;8.20;;;3.30;;
5904;SDS011;2978;42.012;24.880;2023-03-31T21:40:12;7.97;;;4.20;;
5904;SDS011;2978;42.012;24.880;2023-03-31T21:42:38;7.60;;;3.47;;
5904;SDS011;2978;42.012;24.880;2023-03-31T21:45:03;9.50;;;4.00;;
5904;SDS011;2978;42.012;24.880;2023-03-31T21:47:30;6.80;;;3.47;;
5904;SDS011;2978;42.012;24.880;2023-03-31T21:49:56;11.60;;;3.37;;
5904;SDS011;2978;42.012;24.880;2023-03-31T21:52:22;8.73;;;4.10;;
5904;SDS011;2978;42.012;24.880;2023-03-31T21:54:47;13.43;;;4.07;;
5904;SDS011;2978;42.012;24.880;2023-03-31T21:57:12;18.23;;;5.27;;
5904;SDS011;2978;42.012;24.880;2023-03-31T21:59:38;6.80;;;4.10;;
5904;SDS011;2978;42.012;24.880;2023-03-31T22:02:04;9.43;;;3.47;;
5904;SDS011;2978;42.012;24.880;2023-03-31T22:04:29;5.30;;;3.13;;
5904;SDS011;2978;42.012;24.880;2023-03-31T22:06:56;7.97;;;3.73;;
5904;SDS011;2978;42.012;24.880;2023-03-31T22:09:22;7.30;;;3.80;;
5904;SDS011;2978;42.012;24.880;2023-03-31T22:11:48;5.83;;;2.90;;
5904;SDS011;2978;42.012;24.880;2023-03-31T22:14:13;7.97;;;3.53;;
5904;SDS011;2978;42.012;24.880;2023-03-31T22:16:39;6.17;;;3.30;;
5904;SDS011;2978;42.012;24.880;2023-03-31T22:19:05;6.50;;;3.57;;
5904;SDS011;2978;42.012;24.880;2023-03-31T22:21:31;5.43;;;3.50;;
5904;SDS011;2978;42.012;24.880;2023-03-31T22:23:57;4.87;;;3.40;;
5904;SDS011;2978;42.012;24.880;2023-03-31T22:26:24;4.60;;;3.27;;
5904;SDS011;2978;42.012;24.880;2023-03-31T22:28:52;9.93;;;3.27;;
5904;SDS011;2978;42.012;24.880;2023-03-31T22:31:18;6.87;;;2.70;;
5904;SDS011;2978;42.012;24.880;2023-03-31T22:33:44;6.97;;;3.10;;
5904;SDS011;2978;42.012;24.880;2023-03-31T22:36:09;5.50;;;3.47;;
5904;SDS011;2978;42.012;24.880;2023-03-31T22:38:35;6.20;;;3.20;;
5904;SDS011;2978;42.012;24.880;2023-03-31T22:41:00;10.30;;;3.83;;
5904;SDS011;2978;42.012;24.880;2023-03-31T22:43:26;7.87;;;3.00;;
5904;SDS011;2978;42.012;24.880;2023-03-31T22:45:52;4.27;;;3.17;;
5904;SDS011;2978;42.012;24.880;2023-03-31T22:48:17;3.43;;;2.90;;
5904;SDS011;2978;42.012;24.880;2023-03-31T22:50:43;6.63;;;4.63;;
5904;SDS011;2978;42.012;24.880;2023-03-31T22:53:09;7.00;;;3.40;;
5904;SDS011;2978;42.012;24.880;2023-03-31T22:55:42;5.27;;;3.17;;
5904;SDS011;2978;42.012;24.880;2023-03-31T22:58:09;4.97;;;3.20;;
5904;SDS011;2978;42.012;24.880;2023-03-31T23:00:35;4.33;;;2.90;;
5904;SDS011;2978;42.012;24.880;2023-03-31T23:03:01;8.27;;;3.20;;
5904;SDS011;2978;42.012;24.880;2023-03-31T23:05:27;6.00;;;3.50;;
5904;SDS011;2978;42.012;24.880;2023-03-31T23:07:52;6.90;;;3.23;;
5904;SDS011;2978;42.012;24.880;2023-03-31T23:10:17;5.10;;;2.90;;
5904;SDS011;2978;42.012;24.880;2023-03-31T23:12:43;4.83;;;3.10;;
5904;SDS011;2978;42.012;24.880;2023-03-31T23:15:08;6.23;;;3.07;;
5904;SDS011;2978;42.012;24.880;2023-03-31T23:17:34;6.47;;;3.40;;
5904;SDS011;2978;42.012;24.880;2023-03-31T23:19:59;5.10;;;3.10;;
5904;SDS011;2978;42.012;24.880;2023-03-31T23:22:25;4.33;;;2.90;;
5904;SDS011;2978;42.012;24.880;2023-03-31T23:24:51;7.33;;;2.70;;
5904;SDS011;2978;42.012;24.880;2023-03-31T23:27:17;3.37;;;2.70;;
5904;SDS011;2978;42.012;24.880;2023-03-31T23:29:43;3.87;;;2.80;;
5904;SDS011;2978;42.012;24.880;2023-03-31T23:32:10;4.57;;;2.87;;
5904;SDS011;2978;42.012;24.880;2023-03-31T23:34:35;5.30;;;3.10;;
5904;SDS011;2978;42.012;24.880;2023-03-31T23:37:05;6.40;;;3.43;;
5904;SDS011;2978;42.012;24.880;2023-03-31T23:39:32;6.63;;;2.73;;
5904;SDS011;2978;42.012;24.880;2023-03-31T23:41:58;6.90;;;2.93;;
5904;SDS011;2978;42.012;24.880;2023-03-31T23:44:23;8.73;;;3.00;;
5904;SDS011;2978;42.012;24.880;2023-03-31T23:46:48;6.20;;;2.50;;
5904;SDS011;2978;42.012;24.880;2023-03-31T23:49:14;6.23;;;2.83;;
5904;SDS011;2978;42.012;24.880;2023-03-31T23:51:40;8.67;;;2.90;;
5904;SDS011;2978;42.012;24.880;2023-03-31T23:54:05;4.53;;;2.70;;
5904;SDS011;2978;42.012;24.880;2023-03-31T23:56:31;5.90;;;3.30;;
5904;SDS011;2978;42.012;24.880;2023-03-31T23:58:56;17.40;;;3.73;;
